sensor_id;sensor_type;location;lat;lon;timestamp;P1;durP1;ratioP1;P2;durP2;ratioP2
23280;SDS011;11809;56.390;-3.266;2023-04-28T00:02:18;6.15;;;4.50;;
23280;SDS011;11809;56.390;-3.266;2023-04-28T00:04:45;7.72;;;4.60;;
23280;SDS011;11809;56.390;-3.266;2023-04-28T00:07:13;7.00;;;4.60;;
23280;SDS011;11809;56.390;-3.266;2023-04-28T00:09:40;8.15;;;4.60;;
23280;SDS011;11809;56.390;-3.266;2023-04-28T00:12:07;7.38;;;4.82;;
23280;SDS011;11809;56.390;-3.266;2023-04-28T00:14:34;6.25;;;4.05;;
23280;SDS011;11809;56.390;-3.266;2023-04-28T00:17:01;5.68;;;4.15;;
23280;SDS011;11809;56.390;-3.266;2023-04-28T00:19:28;6.25;;;4.55;;
23280;SDS011;11809;56.390;-3.266;2023-04-28T00:21:55;5.68;;;4.32;;
23280;SDS011;11809;56.390;-3.266;2023-04-28T00:24:22;5.45;;;4.60;;
23280;SDS011;11809;56.390;-3.266;2023-04-28T00:26:49;6.15;;;4.47;;
23280;SDS011;11809;56.390;-3.266;2023-04-28T00:29:16;5.53;;;4.10;;
23280;SDS011;11809;56.390;-3.266;2023-04-28T00:31:43;5.53;;;4.45;;
23280;SDS011;11809;56.390;-3.266;2023-04-28T00:34:10;5.60;;;4.90;;
23280;SDS011;11809;56.390;-3.266;2023-04-28T00:36:40;7.65;;;4.85;;
23280;SDS011;11809;56.390;-3.266;2023-04-28T00:39:08;5.22;;;4.57;;
23280;SDS011;11809;56.390;-3.266;2023-04-28T00:41:35;5.13;;;4.63;;
23280;SDS011;11809;56.390;-3.266;2023-04-28T00:44:02;6.13;;;5.10;;
23280;SDS011;11809;56.390;-3.266;2023-04-28T00:46:30;6.22;;;4.80;;
23280;SDS011;11809;56.390;-3.266;2023-04-28T00:48:59;5.63;;;4.32;;
23280;SDS011;11809;56.390;-3.266;2023-04-28T00:51:26;5.72;;;4.60;;
23280;SDS011;11809;56.390;-3.266;2023-04-28T00:53:56;5.22;;;4.63;;
23280;SDS011;11809;56.390;-3.266;2023-04-28T00:56:23;7.68;;;4.53;;
23280;SDS011;11809;56.390;-3.266;2023-04-28T00:58:53;5.60;;;4.50;;
23280;SDS011;11809;56.390;-3.266;2023-04-28T01:01:20;5.60;;;4.95;;
23280;SDS011;11809;56.390;-3.266;2023-04-28T01:03:47;6.40;;;4.53;;
23280;SDS011;11809;56.390;-3.266;2023-04-28T01:06:15;6.65;;;4.68;;
23280;SDS011;11809;56.390;-3.266;2023-04-28T01:08:42;4.95;;;4.45;;
23280;SDS011;11809;56.390;-3.266;2023-04-28T01:11:14;5.38;;;4.63;;
23280;SDS011;11809;56.390;-3.266;2023-04-28T01:13:41;5.53;;;4.53;;
23280;SDS011;11809;56.390;-3.266;2023-04-28T01:16:08;5.57;;;4.70;;
23280;SDS011;11809;56.390;-3.266;2023-04-28T01:18:35;5.57;;;4.63;;
23280;SDS011;11809;56.390;-3.266;2023-04-28T01:21:02;5.60;;;4.28;;
23280;SDS011;11809;56.390;-3.266;2023-04-28T01:23:30;4.93;;;4.43;;
23280;SDS011;11809;56.390;-3.266;2023-04-28T01:25:57;6.80;;;4.75;;
23280;SDS011;11809;56.390;-3.266;2023-04-28T01:28:24;5.32;;;4.40;;
23280;SDS011;11809;56.390;-3.266;2023-04-28T01:30:51;5.07;;;4.50;;
23280;SDS011;11809;56.390;-3.266;2023-04-28T01:33:18;5.40;;;4.70;;
23280;SDS011;11809;56.390;-3.266;2023-04-28T01:35:45;4.82;;;4.30;;
23280;SDS011;11809;56.390;-3.266;2023-04-28T01:38:12;6.07;;;4.55;;
23280;SDS011;11809;56.390;-3.266;2023-04-28T01:40:39;6.13;;;4.53;;
23280;SDS011;11809;56.390;-3.266;2023-04-28T01:43:06;5.45;;;4.22;;
23280;SDS011;11809;56.390;-3.266;2023-04-28T01:45:33;5.57;;;4.65;;
23280;SDS011;11809;56.390;-3.266;2023-04-28T01:48:00;6.57;;;4.57;;
23280;SDS011;11809;56.390;-3.266;2023-04-28T01:50:27;5.00;;;4.50;;
23280;SDS011;11809;56.390;-3.266;2023-04-28T01:52:54;6.53;;;4.60;;
23280;SDS011;11809;56.390;-3.266;2023-04-28T01:55:21;5.82;;;4.43;;
23280;SDS011;11809;56.390;-3.266;2023-04-28T01:57:48;5.05;;;4.60;;
23280;SDS011;11809;56.390;-3.266;2023-04-28T02:00:15;7.05;;;4.88;;
23280;SDS011;11809;56.390;-3.266;2023-04-28T02:02:42;4.93;;;4.35;;
23280;SDS011;11809;56.390;-3.266;2023-04-28T02:05:10;5.53;;;4.50;;
23280;SDS011;11809;56.390;-3.266;2023-04-28T02:07:37;6.32;;;4.45;;
23280;SDS011;11809;56.390;-3.266;2023-04-28T02:10:04;6.65;;;4.63;;
23280;SDS011;11809;56.390;-3.266;2023-04-28T02:12:32;6.50;;;4.57;;
23280;SDS011;11809;56.390;-3.266;2023-04-28T02:14:59;5.00;;;4.53;;
23280;SDS011;11809;56.390;-3.266;2023-04-28T02:17:28;6.03;;;4.70;;
23280;SDS011;11809;56.390;-3.266;2023-04-28T02:19:56;6.47;;;5.00;;
23280;SDS011;11809;56.390;-3.266;2023-04-28T02:22:23;5.97;;;4.55;;
23280;SDS011;11809;56.390;-3.266;2023-04-28T02:24:50;4.93;;;4.30;;
23280;SDS011;11809;56.390;-3.266;2023-04-28T02:27:17;7.32;;;5.00;;
23280;SDS011;11809;56.390;-3.266;2023-04-28T02:29:44;5.85;;;4.30;;
23280;SDS011;11809;56.390;-3.266;2023-04-28T02:32:11;5.30;;;4.75;;
23280;SDS011;11809;56.390;-3.266;2023-04-28T02:34:38;6.38;;;4.50;;
23280;SDS011;11809;56.390;-3.266;2023-04-28T02:37:05;5.82;;;4.70;;
23280;SDS011;11809;56.390;-3.266;2023-04-28T02:39:33;5.70;;;5.10;;
23280;SDS011;11809;56.390;-3.266;2023-04-28T02:42:00;6.10;;;4.85;;
23280;SDS011;11809;56.390;-3.266;2023-04-28T02:44:27;5.75;;;4.82;;
23280;SDS011;11809;56.390;-3.266;2023-04-28T02:46:53;6.43;;;4.75;;
23280;SDS011;11809;56.390;-3.266;2023-04-28T02:49:20;5.32;;;4.70;;
23280;SDS011;11809;56.390;-3.266;2023-04-28T02:51:47;5.55;;;4.50;;
23280;SDS011;11809;56.390;-3.266;2023-04-28T02:54:14;8.77;;;4.45;;
23280;SDS011;11809;56.390;-3.266;2023-04-28T02:56:42;5.65;;;4.93;;
23280;SDS011;11809;56.390;-3.266;2023-04-28T02:59:08;6.55;;;4.80;;
23280;SDS011;11809;56.390;-3.266;2023-04-28T03:01:35;5.80;;;4.70;;
23280;SDS011;11809;56.390;-3.266;2023-04-28T03:04:03;7.57;;;4.63;;
23280;SDS011;11809;56.390;-3.266;2023-04-28T03:06:30;5.00;;;4.50;;
23280;SDS011;11809;56.390;-3.266;2023-04-28T03:08:57;5.13;;;4.53;;
23280;SDS011;11809;56.390;-3.266;2023-04-28T03:11:24;5.90;;;4.43;;
23280;SDS011;11809;56.390;-3.266;2023-04-28T03:13:51;5.80;;;4.25;;
23280;SDS011;11809;56.390;-3.266;2023-04-28T03:16:18;5.65;;;4.40;;
23280;SDS011;11809;56.390;-3.266;2023-04-28T03:18:45;5.20;;;4.25;;
23280;SDS011;11809;56.390;-3.266;2023-04-28T03:21:12;5.95;;;4.80;;
23280;SDS011;11809;56.390;-3.266;2023-04-28T03:23:39;5.40;;;4.15;;
23280;SDS011;11809;56.390;-3.266;2023-04-28T03:26:06;4.85;;;3.95;;
23280;SDS011;11809;56.390;-3.266;2023-04-28T03:28:33;5.78;;;4.35;;
23280;SDS011;11809;56.390;-3.266;2023-04-28T03:31:00;5.13;;;4.30;;
23280;SDS011;11809;56.390;-3.266;2023-04-28T03:33:28;5.13;;;4.45;;
23280;SDS011;11809;56.390;-3.266;2023-04-28T03:35:55;5.25;;;4.10;;
23280;SDS011;11809;56.390;-3.266;2023-04-28T03:38:22;4.55;;;4.13;;
23280;SDS011;11809;56.390;-3.266;2023-04-28T03:40:49;4.78;;;4.00;;
23280;SDS011;11809;56.390;-3.266;2023-04-28T03:43:16;5.00;;;3.92;;
23280;SDS011;11809;56.390;-3.266;2023-04-28T03:45:43;4.43;;;4.03;;
23280;SDS011;11809;56.390;-3.266;2023-04-28T03:48:10;5.28;;;4.03;;
23280;SDS011;11809;56.390;-3.266;2023-04-28T03:50:37;4.32;;;3.92;;
23280;SDS011;11809;56.390;-3.266;2023-04-28T03:53:06;4.05;;;3.65;;
23280;SDS011;11809;56.390;-3.266;2023-04-28T03:55:33;4.18;;;3.78;;
23280;SDS011;11809;56.390;-3.266;2023-04-28T03:58:00;4.45;;;4.05;;
23280;SDS011;11809;56.390;-3.266;2023-04-28T04:00:28;4.13;;;3.75;;
23280;SDS011;11809;56.390;-3.266;2023-04-28T04:02:54;4.80;;;3.90;;
23280;SDS011;11809;56.390;-3.266;2023-04-28T04:05:22;4.43;;;3.95;;
23280;SDS011;11809;56.390;-3.266;2023-04-28T04:07:49;4.93;;;3.97;;
23280;SDS011;11809;56.390;-3.266;2023-04-28T04:10:16;4.55;;;4.05;;
23280;SDS011;11809;56.390;-3.266;2023-04-28T04:12:43;5.55;;;4.40;;
23280;SDS011;11809;56.390;-3.266;2023-04-28T04:15:11;4.07;;;3.67;;
23280;SDS011;11809;56.390;-3.266;2023-04-28T04:17:37;4.57;;;4.10;;
23280;SDS011;11809;56.390;-3.266;2023-04-28T04:20:05;5.20;;;3.85;;
23280;SDS011;11809;56.390;-3.266;2023-04-28T04:22:33;3.92;;;3.50;;
23280;SDS011;11809;56.390;-3.266;2023-04-28T04:25:00;5.80;;;4.15;;
23280;SDS011;11809;56.390;-3.266;2023-04-28T04:27:27;13.82;;;4.95;;
23280;SDS011;11809;56.390;-3.266;2023-04-28T04:29:54;15.10;;;5.32;;
23280;SDS011;11809;56.390;-3.266;2023-04-28T04:32:21;18.75;;;5.72;;
23280;SDS011;11809;56.390;-3.266;2023-04-28T04:34:48;7.93;;;5.35;;
23280;SDS011;11809;56.390;-3.266;2023-04-28T04:37:15;15.52;;;5.25;;
23280;SDS011;11809;56.390;-3.266;2023-04-28T04:39:43;9.40;;;5.28;;
23280;SDS011;11809;56.390;-3.266;2023-04-28T04:42:10;8.45;;;5.32;;
23280;SDS011;11809;56.390;-3.266;2023-04-28T04:44:50;9.32;;;5.40;;
23280;SDS011;11809;56.390;-3.266;2023-04-28T04:47:17;11.52;;;5.70;;
23280;SDS011;11809;56.390;-3.266;2023-04-28T04:49:44;10.77;;;6.07;;
23280;SDS011;11809;56.390;-3.266;2023-04-28T04:52:11;10.20;;;5.78;;
23280;SDS011;11809;56.390;-3.266;2023-04-28T04:54:38;10.60;;;7.60;;
23280;SDS011;11809;56.390;-3.266;2023-04-28T04:57:05;13.45;;;8.32;;
23280;SDS011;11809;56.390;-3.266;2023-04-28T04:59:33;50.22;;;13.27;;
23280;SDS011;11809;56.390;-3.266;2023-04-28T05:02:00;31.75;;;12.60;;
23280;SDS011;11809;56.390;-3.266;2023-04-28T05:04:27;26.17;;;14.60;;
23280;SDS011;11809;56.390;-3.266;2023-04-28T05:06:54;22.90;;;15.68;;
23280;SDS011;11809;56.390;-3.266;2023-04-28T05:09:22;23.60;;;15.23;;
23280;SDS011;11809;56.390;-3.266;2023-04-28T05:11:49;29.75;;;16.20;;
23280;SDS011;11809;56.390;-3.266;2023-04-28T05:14:16;23.27;;;16.88;;
23280;SDS011;11809;56.390;-3.266;2023-04-28T05:16:43;30.73;;;15.65;;
23280;SDS011;11809;56.390;-3.266;2023-04-28T05:19:11;19.65;;;13.35;;
23280;SDS011;11809;56.390;-3.266;2023-04-28T05:21:38;21.70;;;10.95;;
23280;SDS011;11809;56.390;-3.266;2023-04-28T05:24:05;16.38;;;10.35;;
23280;SDS011;11809;56.390;-3.266;2023-04-28T05:26:32;19.23;;;10.38;;
23280;SDS011;11809;56.390;-3.266;2023-04-28T05:28:59;13.18;;;9.18;;
23280;SDS011;11809;56.390;-3.266;2023-04-28T05:31:26;19.60;;;11.43;;
23280;SDS011;11809;56.390;-3.266;2023-04-28T05:33:53;24.27;;;10.70;;
23280;SDS011;11809;56.390;-3.266;2023-04-28T05:36:20;23.67;;;11.25;;
23280;SDS011;11809;56.390;-3.266;2023-04-28T05:38:47;19.35;;;10.57;;
23280;SDS011;11809;56.390;-3.266;2023-04-28T05:41:14;19.02;;;9.55;;
23280;SDS011;11809;56.390;-3.266;2023-04-28T05:43:41;17.88;;;10.20;;
23280;SDS011;11809;56.390;-3.266;2023-04-28T05:46:08;13.45;;;9.35;;
23280;SDS011;11809;56.390;-3.266;2023-04-28T05:48:54;14.45;;;8.85;;
23280;SDS011;11809;56.390;-3.266;2023-04-28T05:51:22;14.95;;;8.00;;
23280;SDS011;11809;56.390;-3.266;2023-04-28T05:53:49;15.10;;;8.07;;
23280;SDS011;11809;56.390;-3.266;2023-04-28T05:56:16;14.10;;;8.07;;
23280;SDS011;11809;56.390;-3.266;2023-04-28T05:58:43;11.27;;;7.55;;
23280;SDS011;11809;56.390;-3.266;2023-04-28T06:01:10;10.52;;;7.43;;
23280;SDS011;11809;56.390;-3.266;2023-04-28T06:03:37;13.68;;;7.45;;
23280;SDS011;11809;56.390;-3.266;2023-04-28T06:08:36;10.20;;;7.03;;
23280;SDS011;11809;56.390;-3.266;2023-04-28T06:11:04;10.25;;;6.72;;
23280;SDS011;11809;56.390;-3.266;2023-04-28T06:13:32;9.88;;;7.20;;
23280;SDS011;11809;56.390;-3.266;2023-04-28T06:15:59;10.07;;;6.50;;
23280;SDS011;11809;56.390;-3.266;2023-04-28T06:18:26;9.73;;;6.60;;
23280;SDS011;11809;56.390;-3.266;2023-04-28T06:20:58;11.07;;;6.72;;
23280;SDS011;11809;56.390;-3.266;2023-04-28T06:23:25;10.70;;;6.65;;
23280;SDS011;11809;56.390;-3.266;2023-04-28T06:25:52;9.07;;;6.53;;
23280;SDS011;11809;56.390;-3.266;2023-04-28T06:28:19;24.52;;;10.80;;
23280;SDS011;11809;56.390;-3.266;2023-04-28T06:30:47;24.88;;;14.02;;
23280;SDS011;11809;56.390;-3.266;2023-04-28T06:33:15;35.25;;;14.02;;
23280;SDS011;11809;56.390;-3.266;2023-04-28T06:35:42;25.80;;;11.93;;
23280;SDS011;11809;56.390;-3.266;2023-04-28T06:38:09;20.63;;;10.27;;
23280;SDS011;11809;56.390;-3.266;2023-04-28T06:40:36;16.05;;;9.65;;
23280;SDS011;11809;56.390;-3.266;2023-04-28T06:43:03;17.33;;;8.93;;
23280;SDS011;11809;56.390;-3.266;2023-04-28T06:45:31;13.95;;;8.27;;
23280;SDS011;11809;56.390;-3.266;2023-04-28T06:47:58;16.15;;;8.13;;
23280;SDS011;11809;56.390;-3.266;2023-04-28T06:50:25;11.40;;;7.80;;
23280;SDS011;11809;56.390;-3.266;2023-04-28T06:52:52;13.18;;;7.22;;
23280;SDS011;11809;56.390;-3.266;2023-04-28T06:55:20;13.90;;;7.40;;
23280;SDS011;11809;56.390;-3.266;2023-04-28T06:57:47;10.65;;;7.03;;
23280;SDS011;11809;56.390;-3.266;2023-04-28T07:00:14;14.23;;;7.25;;
23280;SDS011;11809;56.390;-3.266;2023-04-28T07:02:41;8.55;;;6.40;;
23280;SDS011;11809;56.390;-3.266;2023-04-28T07:05:09;12.77;;;6.53;;
23280;SDS011;11809;56.390;-3.266;2023-04-28T07:07:36;10.52;;;6.40;;
23280;SDS011;11809;56.390;-3.266;2023-04-28T07:10:06;17.38;;;6.75;;
23280;SDS011;11809;56.390;-3.266;2023-04-28T07:12:34;20.70;;;6.05;;
23280;SDS011;11809;56.390;-3.266;2023-04-28T07:15:01;13.38;;;6.32;;
23280;SDS011;11809;56.390;-3.266;2023-04-28T07:17:28;6.90;;;6.00;;
23280;SDS011;11809;56.390;-3.266;2023-04-28T07:19:55;10.70;;;5.90;;
23280;SDS011;11809;56.390;-3.266;2023-04-28T07:22:22;7.90;;;5.63;;
23280;SDS011;11809;56.390;-3.266;2023-04-28T07:24:49;8.55;;;5.47;;
23280;SDS011;11809;56.390;-3.266;2023-04-28T07:27:17;10.75;;;6.25;;
23280;SDS011;11809;56.390;-3.266;2023-04-28T07:29:44;10.98;;;5.80;;
23280;SDS011;11809;56.390;-3.266;2023-04-28T07:32:11;8.57;;;5.68;;
23280;SDS011;11809;56.390;-3.266;2023-04-28T07:34:38;11.18;;;5.55;;
23280;SDS011;11809;56.390;-3.266;2023-04-28T07:37:09;9.37;;;6.37;;
23280;SDS011;11809;56.390;-3.266;2023-04-28T07:39:37;8.38;;;5.90;;
23280;SDS011;11809;56.390;-3.266;2023-04-28T07:42:06;9.25;;;6.18;;
23280;SDS011;11809;56.390;-3.266;2023-04-28T07:44:33;6.13;;;5.40;;
23280;SDS011;11809;56.390;-3.266;2023-04-28T07:47:01;7.30;;;5.70;;
23280;SDS011;11809;56.390;-3.266;2023-04-28T07:49:29;7.07;;;5.97;;
23280;SDS011;11809;56.390;-3.266;2023-04-28T07:51:57;7.78;;;5.50;;
23280;SDS011;11809;56.390;-3.266;2023-04-28T07:54:24;8.43;;;5.95;;
23280;SDS011;11809;56.390;-3.266;2023-04-28T07:56:51;7.20;;;5.80;;
23280;SDS011;11809;56.390;-3.266;2023-04-28T07:59:18;7.97;;;5.78;;
23280;SDS011;11809;56.390;-3.266;2023-04-28T08:01:45;7.22;;;5.43;;
23280;SDS011;11809;56.390;-3.266;2023-04-28T08:04:13;8.43;;;5.80;;
23280;SDS011;11809;56.390;-3.266;2023-04-28T08:06:41;6.57;;;5.40;;
23280;SDS011;11809;56.390;-3.266;2023-04-28T08:09:08;8.48;;;5.53;;
23280;SDS011;11809;56.390;-3.266;2023-04-28T08:11:35;6.95;;;6.15;;
23280;SDS011;11809;56.390;-3.266;2023-04-28T08:14:03;8.23;;;5.75;;
23280;SDS011;11809;56.390;-3.266;2023-04-28T08:16:30;7.10;;;5.50;;
23280;SDS011;11809;56.390;-3.266;2023-04-28T08:18:57;6.78;;;5.38;;
23280;SDS011;11809;56.390;-3.266;2023-04-28T08:21:26;6.32;;;5.45;;
23280;SDS011;11809;56.390;-3.266;2023-04-28T08:23:53;6.05;;;5.43;;
23280;SDS011;11809;56.390;-3.266;2023-04-28T08:26:20;7.88;;;5.80;;
23280;SDS011;11809;56.390;-3.266;2023-04-28T08:28:48;6.43;;;5.68;;
23280;SDS011;11809;56.390;-3.266;2023-04-28T08:31:15;7.00;;;5.50;;
23280;SDS011;11809;56.390;-3.266;2023-04-28T08:33:42;5.97;;;5.25;;
23280;SDS011;11809;56.390;-3.266;2023-04-28T08:36:11;5.75;;;5.15;;
23280;SDS011;11809;56.390;-3.266;2023-04-28T08:38:40;6.05;;;5.45;;
23280;SDS011;11809;56.390;-3.266;2023-04-28T08:41:08;8.55;;;5.32;;
23280;SDS011;11809;56.390;-3.266;2023-04-28T08:43:36;6.53;;;5.28;;
23280;SDS011;11809;56.390;-3.266;2023-04-28T08:46:04;7.75;;;5.35;;
23280;SDS011;11809;56.390;-3.266;2023-04-28T08:48:39;6.10;;;5.32;;
23280;SDS011;11809;56.390;-3.266;2023-04-28T08:51:08;7.18;;;5.60;;
23280;SDS011;11809;56.390;-3.266;2023-04-28T08:53:40;6.40;;;5.25;;
23280;SDS011;11809;56.390;-3.266;2023-04-28T08:56:31;6.93;;;5.93;;
23280;SDS011;11809;56.390;-3.266;2023-04-28T08:59:02;6.18;;;5.18;;
23280;SDS011;11809;56.390;-3.266;2023-04-28T09:01:31;7.03;;;6.00;;
23280;SDS011;11809;56.390;-3.266;2023-04-28T09:04:01;8.68;;;5.82;;
23280;SDS011;11809;56.390;-3.266;2023-04-28T09:06:33;7.72;;;5.97;;
23280;SDS011;11809;56.390;-3.266;2023-04-28T09:09:18;6.70;;;5.70;;
23280;SDS011;11809;56.390;-3.266;2023-04-28T09:14:26;10.02;;;5.78;;
23280;SDS011;11809;56.390;-3.266;2023-04-28T09:16:58;6.22;;;5.45;;
23280;SDS011;11809;56.390;-3.266;2023-04-28T09:19:35;6.70;;;5.43;;
23280;SDS011;11809;56.390;-3.266;2023-04-28T09:22:04;7.00;;;5.60;;
23280;SDS011;11809;56.390;-3.266;2023-04-28T09:24:50;5.82;;;5.15;;
23280;SDS011;11809;56.390;-3.266;2023-04-28T09:27:19;6.15;;;5.47;;
23280;SDS011;11809;56.390;-3.266;2023-04-28T09:29:53;6.72;;;5.75;;
23280;SDS011;11809;56.390;-3.266;2023-04-28T09:32:21;5.68;;;5.13;;
23280;SDS011;11809;56.390;-3.266;2023-04-28T09:34:51;6.90;;;5.80;;
23280;SDS011;11809;56.390;-3.266;2023-04-28T09:37:20;7.80;;;5.60;;
23280;SDS011;11809;56.390;-3.266;2023-04-28T09:39:52;5.90;;;5.30;;
23280;SDS011;11809;56.390;-3.266;2023-04-28T09:42:30;7.57;;;5.70;;
23280;SDS011;11809;56.390;-3.266;2023-04-28T09:44:59;6.78;;;5.20;;
23280;SDS011;11809;56.390;-3.266;2023-04-28T09:47:29;8.37;;;5.50;;
23280;SDS011;11809;56.390;-3.266;2023-04-28T09:49:59;7.45;;;5.75;;
23280;SDS011;11809;56.390;-3.266;2023-04-28T09:52:27;7.15;;;5.65;;
23280;SDS011;11809;56.390;-3.266;2023-04-28T09:54:55;7.43;;;5.60;;
23280;SDS011;11809;56.390;-3.266;2023-04-28T09:57:22;6.90;;;5.32;;
23280;SDS011;11809;56.390;-3.266;2023-04-28T09:59:50;6.45;;;5.70;;
23280;SDS011;11809;56.390;-3.266;2023-04-28T10:02:19;6.85;;;5.10;;
23280;SDS011;11809;56.390;-3.266;2023-04-28T10:05:07;7.00;;;5.88;;
23280;SDS011;11809;56.390;-3.266;2023-04-28T10:07:36;8.10;;;5.68;;
23280;SDS011;11809;56.390;-3.266;2023-04-28T10:10:05;6.47;;;5.47;;
23280;SDS011;11809;56.390;-3.266;2023-04-28T10:12:34;7.18;;;5.68;;
23280;SDS011;11809;56.390;-3.266;2023-04-28T10:15:08;7.13;;;5.80;;
23280;SDS011;11809;56.390;-3.266;2023-04-28T10:17:36;7.07;;;6.03;;
23280;SDS011;11809;56.390;-3.266;2023-04-28T10:20:04;8.15;;;5.50;;
23280;SDS011;11809;56.390;-3.266;2023-04-28T10:25:34;6.40;;;5.68;;
23280;SDS011;11809;56.390;-3.266;2023-04-28T10:28:06;9.93;;;5.63;;
23280;SDS011;11809;56.390;-3.266;2023-04-28T10:30:36;7.70;;;5.65;;
23280;SDS011;11809;56.390;-3.266;2023-04-28T10:35:44;7.32;;;5.80;;
23280;SDS011;11809;56.390;-3.266;2023-04-28T10:38:19;7.55;;;5.65;;
23280;SDS011;11809;56.390;-3.266;2023-04-28T10:40:50;7.03;;;5.38;;
23280;SDS011;11809;56.390;-3.266;2023-04-28T10:48:23;7.55;;;5.70;;
23280;SDS011;11809;56.390;-3.266;2023-04-28T10:58:47;7.38;;;5.60;;
23280;SDS011;11809;56.390;-3.266;2023-04-28T11:04:15;5.95;;;5.25;;
23280;SDS011;11809;56.390;-3.266;2023-04-28T11:06:44;6.05;;;5.43;;
23280;SDS011;11809;56.390;-3.266;2023-04-28T11:19:31;6.20;;;5.60;;
23280;SDS011;11809;56.390;-3.266;2023-04-28T11:22:01;5.85;;;5.25;;
23280;SDS011;11809;56.390;-3.266;2023-04-28T11:24:30;6.47;;;5.32;;
23280;SDS011;11809;56.390;-3.266;2023-04-28T11:26:58;6.25;;;5.50;;
23280;SDS011;11809;56.390;-3.266;2023-04-28T11:32:06;6.82;;;5.80;;
23280;SDS011;11809;56.390;-3.266;2023-04-28T11:34:35;6.60;;;5.18;;
23280;SDS011;11809;56.390;-3.266;2023-04-28T11:37:03;6.15;;;5.55;;
23280;SDS011;11809;56.390;-3.266;2023-04-28T11:39:33;5.90;;;5.37;;
23280;SDS011;11809;56.390;-3.266;2023-04-28T11:42:01;7.15;;;5.63;;
23280;SDS011;11809;56.390;-3.266;2023-04-28T11:44:36;5.90;;;5.30;;
23280;SDS011;11809;56.390;-3.266;2023-04-28T11:47:04;5.65;;;5.10;;
23280;SDS011;11809;56.390;-3.266;2023-04-28T11:49:45;6.00;;;5.03;;
23280;SDS011;11809;56.390;-3.266;2023-04-28T11:52:13;6.30;;;5.50;;
23280;SDS011;11809;56.390;-3.266;2023-04-28T11:54:40;5.93;;;5.35;;
23280;SDS011;11809;56.390;-3.266;2023-04-28T11:57:17;6.28;;;5.18;;
23280;SDS011;11809;56.390;-3.266;2023-04-28T11:59:45;6.15;;;5.50;;
23280;SDS011;11809;56.390;-3.266;2023-04-28T12:02:14;5.43;;;4.93;;
23280;SDS011;11809;56.390;-3.266;2023-04-28T12:04:43;7.60;;;4.80;;
23280;SDS011;11809;56.390;-3.266;2023-04-28T12:07:11;5.78;;;5.18;;
23280;SDS011;11809;56.390;-3.266;2023-04-28T12:09:41;5.57;;;5.00;;
23280;SDS011;11809;56.390;-3.266;2023-04-28T12:12:35;5.88;;;4.68;;
23280;SDS011;11809;56.390;-3.266;2023-04-28T12:15:16;5.25;;;4.75;;
23280;SDS011;11809;56.390;-3.266;2023-04-28T12:17:46;5.25;;;4.70;;
23280;SDS011;11809;56.390;-3.266;2023-04-28T12:20:32;5.75;;;4.72;;
23280;SDS011;11809;56.390;-3.266;2023-04-28T12:23:01;5.25;;;4.75;;
23280;SDS011;11809;56.390;-3.266;2023-04-28T12:25:28;5.90;;;4.53;;
23280;SDS011;11809;56.390;-3.266;2023-04-28T12:30:29;5.10;;;4.47;;
23280;SDS011;11809;56.390;-3.266;2023-04-28T12:33:00;5.25;;;4.75;;
23280;SDS011;11809;56.390;-3.266;2023-04-28T12:35:28;4.85;;;4.45;;
23280;SDS011;11809;56.390;-3.266;2023-04-28T12:37:55;5.00;;;4.50;;
23280;SDS011;11809;56.390;-3.266;2023-04-28T12:40:24;4.95;;;4.50;;
23280;SDS011;11809;56.390;-3.266;2023-04-28T12:42:51;4.70;;;4.30;;
23280;SDS011;11809;56.390;-3.266;2023-04-28T12:45:19;4.95;;;4.53;;
23280;SDS011;11809;56.390;-3.266;2023-04-28T12:47:46;4.95;;;4.47;;
23280;SDS011;11809;56.390;-3.266;2023-04-28T12:50:13;4.35;;;3.95;;
23280;SDS011;11809;56.390;-3.266;2023-04-28T12:52:40;4.38;;;3.97;;
23280;SDS011;11809;56.390;-3.266;2023-04-28T12:55:08;4.55;;;4.15;;
23280;SDS011;11809;56.390;-3.266;2023-04-28T12:57:35;4.75;;;4.00;;
23280;SDS011;11809;56.390;-3.266;2023-04-28T13:00:05;4.45;;;4.05;;
23280;SDS011;11809;56.390;-3.266;2023-04-28T13:02:33;3.97;;;3.58;;
23280;SDS011;11809;56.390;-3.266;2023-04-28T13:05:00;4.00;;;3.70;;
23280;SDS011;11809;56.390;-3.266;2023-04-28T13:07:28;4.03;;;3.67;;
23280;SDS011;11809;56.390;-3.266;2023-04-28T13:09:56;3.80;;;3.50;;
23280;SDS011;11809;56.390;-3.266;2023-04-28T13:12:24;4.13;;;3.67;;
23280;SDS011;11809;56.390;-3.266;2023-04-28T13:14:52;6.00;;;4.18;;
23280;SDS011;11809;56.390;-3.266;2023-04-28T13:17:19;5.00;;;4.00;;
23280;SDS011;11809;56.390;-3.266;2023-04-28T13:19:46;4.68;;;4.10;;
23280;SDS011;11809;56.390;-3.266;2023-04-28T13:22:13;4.40;;;4.00;;
23280;SDS011;11809;56.390;-3.266;2023-04-28T13:24:41;3.88;;;3.47;;
23280;SDS011;11809;56.390;-3.266;2023-04-28T13:27:09;4.47;;;3.83;;
23280;SDS011;11809;56.390;-3.266;2023-04-28T13:29:36;4.30;;;3.90;;
23280;SDS011;11809;56.390;-3.266;2023-04-28T13:32:03;4.30;;;3.90;;
23280;SDS011;11809;56.390;-3.266;2023-04-28T13:34:32;3.75;;;3.45;;
23280;SDS011;11809;56.390;-3.266;2023-04-28T13:36:59;3.75;;;3.45;;
23280;SDS011;11809;56.390;-3.266;2023-04-28T13:39:26;4.18;;;3.88;;
23280;SDS011;11809;56.390;-3.266;2023-04-28T13:41:53;4.18;;;3.78;;
23280;SDS011;11809;56.390;-3.266;2023-04-28T13:44:20;4.10;;;3.70;;
23280;SDS011;11809;56.390;-3.266;2023-04-28T13:46:48;3.55;;;3.28;;
23280;SDS011;11809;56.390;-3.266;2023-04-28T13:49:15;3.90;;;3.15;;
23280;SDS011;11809;56.390;-3.266;2023-04-28T13:51:43;3.83;;;3.53;;
23280;SDS011;11809;56.390;-3.266;2023-04-28T13:54:11;3.28;;;3.05;;
23280;SDS011;11809;56.390;-3.266;2023-04-28T13:56:38;3.13;;;2.92;;
23280;SDS011;11809;56.390;-3.266;2023-04-28T13:59:05;3.28;;;3.00;;
23280;SDS011;11809;56.390;-3.266;2023-04-28T14:01:32;2.92;;;2.67;;
23280;SDS011;11809;56.390;-3.266;2023-04-28T14:04:00;3.00;;;2.80;;
23280;SDS011;11809;56.390;-3.266;2023-04-28T14:06:28;3.25;;;2.97;;
23280;SDS011;11809;56.390;-3.266;2023-04-28T14:08:57;2.78;;;2.58;;
23280;SDS011;11809;56.390;-3.266;2023-04-28T14:11:24;2.83;;;2.63;;
23280;SDS011;11809;56.390;-3.266;2023-04-28T14:13:52;2.60;;;2.40;;
23280;SDS011;11809;56.390;-3.266;2023-04-28T14:16:20;3.10;;;2.70;;
23280;SDS011;11809;56.390;-3.266;2023-04-28T14:18:48;2.63;;;2.42;;
23280;SDS011;11809;56.390;-3.266;2023-04-28T14:21:15;3.58;;;2.60;;
23280;SDS011;11809;56.390;-3.266;2023-04-28T14:23:43;2.55;;;2.35;;
23280;SDS011;11809;56.390;-3.266;2023-04-28T14:26:11;2.78;;;2.58;;
23280;SDS011;11809;56.390;-3.266;2023-04-28T14:28:38;2.50;;;2.30;;
23280;SDS011;11809;56.390;-3.266;2023-04-28T14:31:06;7.43;;;2.50;;
23280;SDS011;11809;56.390;-3.266;2023-04-28T14:33:34;3.15;;;2.65;;
23280;SDS011;11809;56.390;-3.266;2023-04-28T14:36:02;2.80;;;2.60;;
23280;SDS011;11809;56.390;-3.266;2023-04-28T14:38:30;3.47;;;2.30;;
23280;SDS011;11809;56.390;-3.266;2023-04-28T14:43:28;3.15;;;2.60;;
23280;SDS011;11809;56.390;-3.266;2023-04-28T14:45:56;2.40;;;2.20;;
23280;SDS011;11809;56.390;-3.266;2023-04-28T14:48:26;2.35;;;2.15;;
23280;SDS011;11809;56.390;-3.266;2023-04-28T14:50:54;2.58;;;2.38;;
23280;SDS011;11809;56.390;-3.266;2023-04-28T14:53:21;5.00;;;2.22;;
23280;SDS011;11809;56.390;-3.266;2023-04-28T14:55:49;2.72;;;2.30;;
23280;SDS011;11809;56.390;-3.266;2023-04-28T14:58:16;2.50;;;2.30;;
23280;SDS011;11809;56.390;-3.266;2023-04-28T15:00:43;3.28;;;2.22;;
23280;SDS011;11809;56.390;-3.266;2023-04-28T15:03:10;5.30;;;2.55;;
23280;SDS011;11809;56.390;-3.266;2023-04-28T15:05:38;6.00;;;2.30;;
23280;SDS011;11809;56.390;-3.266;2023-04-28T15:08:05;10.60;;;2.83;;
23280;SDS011;11809;56.390;-3.266;2023-04-28T15:10:36;9.48;;;2.58;;
23280;SDS011;11809;56.390;-3.266;2023-04-28T15:13:07;2.90;;;2.30;;
23280;SDS011;11809;56.390;-3.266;2023-04-28T15:15:34;4.47;;;2.42;;
23280;SDS011;11809;56.390;-3.266;2023-04-28T15:18:02;5.72;;;2.17;;
23280;SDS011;11809;56.390;-3.266;2023-04-28T15:20:30;3.97;;;2.20;;
23280;SDS011;11809;56.390;-3.266;2023-04-28T15:23:02;16.63;;;6.78;;